sensor_id;sensor_type;location;lat;lon;timestamp;temperature;humidity
48752;DHT22;34544;48.836;9.174;2022-09-06T00:00:36;17.60;99.90
48752;DHT22;34544;48.836;9.174;2022-09-06T00:03:02;17.60;99.90
48752;DHT22;34544;48.836;9.174;2022-09-06T00:05:29;17.60;99.90
48752;DHT22;34544;48.836;9.174;2022-09-06T00:08:03;17.50;99.90
48752;DHT22;34544;48.836;9.174;2022-09-06T00:10:30;17.50;99.90
48752;DHT22;34544;48.836;9.174;2022-09-06T00:13:00;17.40;99.90
48752;DHT22;34544;48.836;9.174;2022-09-06T00:15:26;17.40;99.90
48752;DHT22;34544;48.836;9.174;2022-09-06T00:17:52;17.40;99.90
48752;DHT22;34544;48.836;9.174;2022-09-06T00:20:18;17.30;99.90
48752;DHT22;34544;48.836;9.174;2022-09-06T00:22:43;17.30;99.90
48752;DHT22;34544;48.836;9.174;2022-09-06T00:25:09;17.30;99.90
48752;DHT22;34544;48.836;9.174;2022-09-06T00:27:35;17.30;99.90
48752;DHT22;34544;48.836;9.174;2022-09-06T00:30:01;17.20;99.90
48752;DHT22;34544;48.836;9.174;2022-09-06T00:32:30;17.30;99.90
48752;DHT22;34544;48.836;9.174;2022-09-06T00:34:55;17.20;99.90
48752;DHT22;34544;48.836;9.174;2022-09-06T00:37:21;17.20;99.90
48752;DHT22;34544;48.836;9.174;2022-09-06T00:39:47;17.10;99.90
48752;DHT22;34544;48.836;9.174;2022-09-06T00:42:13;17.10;99.90
48752;DHT22;34544;48.836;9.174;2022-09-06T00:44:39;17.10;99.90
48752;DHT22;34544;48.836;9.174;2022-09-06T00:47:05;17.10;99.90
48752;DHT22;34544;48.836;9.174;2022-09-06T00:49:36;17.00;99.90
48752;DHT22;34544;48.836;9.174;2022-09-06T00:52:06;17.00;99.90
48752;DHT22;34544;48.836;9.174;2022-09-06T00:54:33;17.00;99.90
48752;DHT22;34544;48.836;9.174;2022-09-06T00:56:59;17.00;99.90
48752;DHT22;34544;48.836;9.174;2022-09-06T00:59:26;17.00;99.90
48752;DHT22;34544;48.836;9.174;2022-09-06T01:01:53;17.00;99.90
48752;DHT22;34544;48.836;9.174;2022-09-06T01:04:19;17.10;99.90
48752;DHT22;34544;48.836;9.174;2022-09-06T01:15:39;17.10;99.90
48752;DHT22;34544;48.836;9.174;2022-09-06T01:18:22;17.10;99.90
48752;DHT22;34544;48.836;9.174;2022-09-06T01:29:25;17.00;99.90
48752;DHT22;34544;48.836;9.174;2022-09-06T01:32:19;17.00;99.90
48752;DHT22;34544;48.836;9.174;2022-09-06T01:37:40;17.00;99.90
48752;DHT22;34544;48.836;9.174;2022-09-06T01:40:06;17.00;99.90
48752;DHT22;34544;48.836;9.174;2022-09-06T01:42:32;17.00;99.90
48752;DHT22;34544;48.836;9.174;2022-09-06T01:45:06;17.00;99.90
48752;DHT22;34544;48.836;9.174;2022-09-06T01:50:30;17.00;99.90
48752;DHT22;34544;48.836;9.174;2022-09-06T01:56:03;16.90;99.90
48752;DHT22;34544;48.836;9.174;2022-09-06T02:03:58;16.90;99.90
48752;DHT22;34544;48.836;9.174;2022-09-06T02:06:28;16.90;99.90
48752;DHT22;34544;48.836;9.174;2022-09-06T02:09:08;16.90;99.90
48752;DHT22;34544;48.836;9.174;2022-09-06T02:11:47;16.90;99.90
48752;DHT22;34544;48.836;9.174;2022-09-06T02:14:31;16.90;99.90
48752;DHT22;34544;48.836;9.174;2022-09-06T02:16:59;17.00;99.90
48752;DHT22;34544;48.836;9.174;2022-09-06T02:19:41;17.10;99.90
48752;DHT22;34544;48.836;9.174;2022-09-06T02:22:10;17.20;99.90
48752;DHT22;34544;48.836;9.174;2022-09-06T02:24:37;17.50;99.90
48752;DHT22;34544;48.836;9.174;2022-09-06T02:27:05;17.70;99.90
48752;DHT22;34544;48.836;9.174;2022-09-06T02:29:32;17.90;99.90
48752;DHT22;34544;48.836;9.174;2022-09-06T02:32:21;18.10;99.90
48752;DHT22;34544;48.836;9.174;2022-09-06T02:34:51;18.30;99.90
48752;DHT22;34544;48.836;9.174;2022-09-06T02:37:19;18.60;99.90
48752;DHT22;34544;48.836;9.174;2022-09-06T02:39:45;18.80;99.90
48752;DHT22;34544;48.836;9.174;2022-09-06T02:42:12;19.00;99.90
48752;DHT22;34544;48.836;9.174;2022-09-06T02:44:38;19.30;99.90
48752;DHT22;34544;48.836;9.174;2022-09-06T02:47:04;19.40;99.90
48752;DHT22;34544;48.836;9.174;2022-09-06T02:49:30;19.50;99.90
48752;DHT22;34544;48.836;9.174;2022-09-06T02:51:56;19.60;99.90
48752;DHT22;34544;48.836;9.174;2022-09-06T02:54:22;19.60;99.90
48752;DHT22;34544;48.836;9.174;2022-09-06T02:56:48;19.60;99.90
48752;DHT22;34544;48.836;9.174;2022-09-06T02:59:14;19.70;99.90
48752;DHT22;34544;48.836;9.174;2022-09-06T03:01:39;19.60;99.90
48752;DHT22;34544;48.836;9.174;2022-09-06T03:04:05;19.60;99.90
48752;DHT22;34544;48.836;9.174;2022-09-06T03:06:31;19.50;99.90
48752;DHT22;34544;48.836;9.174;2022-09-06T03:08:57;19.40;99.90
48752;DHT22;34544;48.836;9.174;2022-09-06T03:11:25;19.30;99.90
48752;DHT22;34544;48.836;9.174;2022-09-06T03:13:51;19.20;99.90
48752;DHT22;34544;48.836;9.174;2022-09-06T03:16:17;19.10;99.90
48752;DHT22;34544;48.836;9.174;2022-09-06T03:18:43;19.10;99.90
48752;DHT22;34544;48.836;9.174;2022-09-06T03:21:09;19.00;99.90
48752;DHT22;34544;48.836;9.174;2022-09-06T03:23:35;19.00;99.90
48752;DHT22;34544;48.836;9.174;2022-09-06T03:26:00;19.00;99.90
48752;DHT22;34544;48.836;9.174;2022-09-06T03:28:26;18.90;99.90
48752;DHT22;34544;48.836;9.174;2022-09-06T03:30:52;18.80;99.90
48752;DHT22;34544;48.836;9.174;2022-09-06T03:33:19;18.70;99.90
48752;DHT22;34544;48.836;9.174;2022-09-06T03:35:53;18.60;99.90
48752;DHT22;34544;48.836;9.174;2022-09-06T03:38:20;18.60;99.90
48752;DHT22;34544;48.836;9.174;2022-09-06T03:40:47;18.50;99.90
48752;DHT22;34544;48.836;9.174;2022-09-06T03:43:13;18.50;99.90
48752;DHT22;34544;48.836;9.174;2022-09-06T03:45:43;18.40;99.90
48752;DHT22;34544;48.836;9.174;2022-09-06T03:48:09;18.40;99.90
48752;DHT22;34544;48.836;9.174;2022-09-06T03:50:34;18.30;99.90
48752;DHT22;34544;48.836;9.174;2022-09-06T03:53:00;18.20;99.90
48752;DHT22;34544;48.836;9.174;2022-09-06T03:55:25;18.10;99.90
48752;DHT22;34544;48.836;9.174;2022-09-06T03:57:51;18.00;99.90
48752;DHT22;34544;48.836;9.174;2022-09-06T04:00:17;17.90;99.90
48752;DHT22;34544;48.836;9.174;2022-09-06T04:02:42;17.80;99.90
48752;DHT22;34544;48.836;9.174;2022-09-06T04:05:08;17.80;99.90
48752;DHT22;34544;48.836;9.174;2022-09-06T04:07:34;17.80;99.90
48752;DHT22;34544;48.836;9.174;2022-09-06T04:10:02;17.80;99.90
48752;DHT22;34544;48.836;9.174;2022-09-06T04:12:28;17.80;99.90
48752;DHT22;34544;48.836;9.174;2022-09-06T04:14:54;17.80;99.90
48752;DHT22;34544;48.836;9.174;2022-09-06T04:17:19;17.80;99.90
48752;DHT22;34544;48.836;9.174;2022-09-06T04:19:45;17.80;99.90
48752;DHT22;34544;48.836;9.174;2022-09-06T04:22:10;17.70;99.90
48752;DHT22;34544;48.836;9.174;2022-09-06T04:24:36;17.70;99.90
48752;DHT22;34544;48.836;9.174;2022-09-06T04:27:01;17.80;99.90
48752;DHT22;34544;48.836;9.174;2022-09-06T04:29:27;17.80;99.90
48752;DHT22;34544;48.836;9.174;2022-09-06T04:31:53;17.90;99.90
48752;DHT22;34544;48.836;9.174;2022-09-06T04:34:18;17.90;99.90
48752;DHT22;34544;48.836;9.174;2022-09-06T04:36:44;17.90;99.90
48752;DHT22;34544;48.836;9.174;2022-09-06T04:39:09;17.90;99.90
48752;DHT22;34544;48.836;9.174;2022-09-06T04:41:35;17.90;99.90
48752;DHT22;34544;48.836;9.174;2022-09-06T04:44:01;17.80;99.90
48752;DHT22;34544;48.836;9.174;2022-09-06T04:46:28;17.80;99.90
48752;DHT22;34544;48.836;9.174;2022-09-06T04:48:55;17.80;99.90
48752;DHT22;34544;48.836;9.174;2022-09-06T04:51:22;17.80;99.90
48752;DHT22;34544;48.836;9.174;2022-09-06T04:53:49;17.90;99.90
48752;DHT22;34544;48.836;9.174;2022-09-06T04:56:17;17.90;99.90
48752;DHT22;34544;48.836;9.174;2022-09-06T04:58:45;17.90;99.90
48752;DHT22;34544;48.836;9.174;2022-09-06T05:01:11;17.90;99.90
48752;DHT22;34544;48.836;9.174;2022-09-06T05:03:37;18.00;99.90
48752;DHT22;34544;48.836;9.174;2022-09-06T05:06:22;18.00;99.90
48752;DHT22;34544;48.836;9.174;2022-09-06T05:08:49;17.90;99.90
48752;DHT22;34544;48.836;9.174;2022-09-06T05:11:16;17.90;99.90
48752;DHT22;34544;48.836;9.174;2022-09-06T05:13:41;17.90;99.90
48752;DHT22;34544;48.836;9.174;2022-09-06T05:16:08;18.00;99.90
48752;DHT22;34544;48.836;9.174;2022-09-06T05:18:34;18.00;99.90
48752;DHT22;34544;48.836;9.174;2022-09-06T05:21:00;18.00;99.90
48752;DHT22;34544;48.836;9.174;2022-09-06T05:23:26;18.00;99.90
48752;DHT22;34544;48.836;9.174;2022-09-06T05:25:52;18.00;99.90
48752;DHT22;34544;48.836;9.174;2022-09-06T05:28:18;18.10;99.90
48752;DHT22;34544;48.836;9.174;2022-09-06T05:30:44;18.10;99.90
48752;DHT22;34544;48.836;9.174;2022-09-06T05:33:11;18.10;99.90
48752;DHT22;34544;48.836;9.174;2022-09-06T05:35:37;18.10;99.90
48752;DHT22;34544;48.836;9.174;2022-09-06T05:38:03;18.20;99.90
48752;DHT22;34544;48.836;9.174;2022-09-06T05:40:29;18.20;99.90
48752;DHT22;34544;48.836;9.174;2022-09-06T05:42:55;18.20;99.90
48752;DHT22;34544;48.836;9.174;2022-09-06T05:45:20;18.30;99.90
48752;DHT22;34544;48.836;9.174;2022-09-06T05:47:46;18.30;99.90
48752;DHT22;34544;48.836;9.174;2022-09-06T05:50:12;18.30;99.90
48752;DHT22;34544;48.836;9.174;2022-09-06T05:52:37;18.30;99.90
48752;DHT22;34544;48.836;9.174;2022-09-06T05:55:04;18.30;99.90
48752;DHT22;34544;48.836;9.174;2022-09-06T05:57:31;18.40;99.90
48752;DHT22;34544;48.836;9.174;2022-09-06T05:59:56;18.50;99.90
48752;DHT22;34544;48.836;9.174;2022-09-06T06:02:22;18.50;99.90
48752;DHT22;34544;48.836;9.174;2022-09-06T06:04:48;18.60;99.90
48752;DHT22;34544;48.836;9.174;2022-09-06T06:07:14;18.60;99.90
48752;DHT22;34544;48.836;9.174;2022-09-06T06:09:40;18.70;99.90
48752;DHT22;34544;48.836;9.174;2022-09-06T06:12:06;18.70;99.90
48752;DHT22;34544;48.836;9.174;2022-09-06T06:14:32;18.70;99.90
48752;DHT22;34544;48.836;9.174;2022-09-06T06:16:58;18.80;99.90
48752;DHT22;34544;48.836;9.174;2022-09-06T06:19:24;18.80;99.90
48752;DHT22;34544;48.836;9.174;2022-09-06T06:21:51;18.80;99.90
48752;DHT22;34544;48.836;9.174;2022-09-06T06:24:17;18.90;99.90
48752;DHT22;34544;48.836;9.174;2022-09-06T06:26:43;18.90;99.90
48752;DHT22;34544;48.836;9.174;2022-09-06T06:29:08;19.00;99.90
48752;DHT22;34544;48.836;9.174;2022-09-06T06:31:35;19.00;99.90
48752;DHT22;34544;48.836;9.174;2022-09-06T06:34:02;19.10;99.90
48752;DHT22;34544;48.836;9.174;2022-09-06T06:36:29;19.10;99.90
48752;DHT22;34544;48.836;9.174;2022-09-06T06:38:56;19.20;99.90
48752;DHT22;34544;48.836;9.174;2022-09-06T06:41:27;19.20;99.90
48752;DHT22;34544;48.836;9.174;2022-09-06T06:44:03;19.30;99.90
48752;DHT22;34544;48.836;9.174;2022-09-06T06:46:32;19.40;99.90
48752;DHT22;34544;48.836;9.174;2022-09-06T06:48:57;19.50;99.90
48752;DHT22;34544;48.836;9.174;2022-09-06T06:51:28;19.50;99.90
48752;DHT22;34544;48.836;9.174;2022-09-06T06:53:54;19.60;99.90
48752;DHT22;34544;48.836;9.174;2022-09-06T06:56:28;19.60;99.90
48752;DHT22;34544;48.836;9.174;2022-09-06T06:58:57;19.70;99.90
48752;DHT22;34544;48.836;9.174;2022-09-06T07:01:24;19.90;99.90
48752;DHT22;34544;48.836;9.174;2022-09-06T07:03:53;20.20;99.90
48752;DHT22;34544;48.836;9.174;2022-09-06T07:06:19;20.10;99.90
48752;DHT22;34544;48.836;9.174;2022-09-06T07:08:45;20.30;99.90
48752;DHT22;34544;48.836;9.174;2022-09-06T07:11:13;20.50;99.90
48752;DHT22;34544;48.836;9.174;2022-09-06T07:13:39;20.70;99.90
48752;DHT22;34544;48.836;9.174;2022-09-06T07:16:25;20.90;99.90
48752;DHT22;34544;48.836;9.174;2022-09-06T07:18:53;21.10;99.90
48752;DHT22;34544;48.836;9.174;2022-09-06T07:21:23;21.10;99.90
48752;DHT22;34544;48.836;9.174;2022-09-06T07:23:52;21.30;99.90
48752;DHT22;34544;48.836;9.174;2022-09-06T07:26:20;21.50;99.90
48752;DHT22;34544;48.836;9.174;2022-09-06T07:28:46;21.70;99.90
48752;DHT22;34544;48.836;9.174;2022-09-06T07:31:13;21.80;99.90
48752;DHT22;34544;48.836;9.174;2022-09-06T07:33:39;21.90;99.90
48752;DHT22;34544;48.836;9.174;2022-09-06T07:36:06;22.00;99.90
48752;DHT22;34544;48.836;9.174;2022-09-06T07:41:01;22.30;99.90
48752;DHT22;34544;48.836;9.174;2022-09-06T07:43:27;22.50;99.90
48752;DHT22;34544;48.836;9.174;2022-09-06T07:46:15;22.50;99.90
48752;DHT22;34544;48.836;9.174;2022-09-06T07:48:44;22.60;99.90
48752;DHT22;34544;48.836;9.174;2022-09-06T07:51:13;22.70;99.90
48752;DHT22;34544;48.836;9.174;2022-09-06T07:53:41;22.80;99.90
48752;DHT22;34544;48.836;9.174;2022-09-06T07:56:09;23.10;99.90
48752;DHT22;34544;48.836;9.174;2022-09-06T07:58:36;23.30;99.90
48752;DHT22;34544;48.836;9.174;2022-09-06T08:01:37;23.60;99.90
48752;DHT22;34544;48.836;9.174;2022-09-06T08:06:32;24.00;99.90
48752;DHT22;34544;48.836;9.174;2022-09-06T08:08:58;24.10;99.90
48752;DHT22;34544;48.836;9.174;2022-09-06T08:11:29;24.40;99.90
48752;DHT22;34544;48.836;9.174;2022-09-06T08:13:56;24.60;99.90
48752;DHT22;34544;48.836;9.174;2022-09-06T08:16:23;24.80;99.90
48752;DHT22;34544;48.836;9.174;2022-09-06T08:18:54;24.90;99.90
48752;DHT22;34544;48.836;9.174;2022-09-06T08:21:22;25.10;99.90
48752;DHT22;34544;48.836;9.174;2022-09-06T08:23:50;25.20;99.90
48752;DHT22;34544;48.836;9.174;2022-09-06T08:26:17;25.30;99.90
48752;DHT22;34544;48.836;9.174;2022-09-06T08:28:43;25.50;99.90
48752;DHT22;34544;48.836;9.174;2022-09-06T08:31:10;25.60;99.90
48752;DHT22;34544;48.836;9.174;2022-09-06T08:33:37;25.70;99.90
48752;DHT22;34544;48.836;9.174;2022-09-06T08:36:04;25.70;99.90
48752;DHT22;34544;48.836;9.174;2022-09-06T08:38:30;25.80;99.90
48752;DHT22;34544;48.836;9.174;2022-09-06T08:43:34;26.00;99.90
48752;DHT22;34544;48.836;9.174;2022-09-06T08:46:00;26.10;99.90
48752;DHT22;34544;48.836;9.174;2022-09-06T08:48:29;26.20;99.90
48752;DHT22;34544;48.836;9.174;2022-09-06T08:53:42;26.50;99.90
48752;DHT22;34544;48.836;9.174;2022-09-06T08:56:14;26.70;99.90
48752;DHT22;34544;48.836;9.174;2022-09-06T09:01:26;27.30;99.90
48752;DHT22;34544;48.836;9.174;2022-09-06T09:03:56;27.50;99.90
48752;DHT22;34544;48.836;9.174;2022-09-06T09:06:26;27.70;99.90
48752;DHT22;34544;48.836;9.174;2022-09-06T09:09:07;27.80;99.90
48752;DHT22;34544;48.836;9.174;2022-09-06T09:11:35;27.90;99.90
48752;DHT22;34544;48.836;9.174;2022-09-06T09:14:14;28.20;99.90
48752;DHT22;34544;48.836;9.174;2022-09-06T09:16:41;28.60;99.90
48752;DHT22;34544;48.836;9.174;2022-09-06T09:19:07;28.80;99.90
48752;DHT22;34544;48.836;9.174;2022-09-06T09:21:36;28.90;99.90
48752;DHT22;34544;48.836;9.174;2022-09-06T09:24:06;28.90;99.90
48752;DHT22;34544;48.836;9.174;2022-09-06T09:27:10;28.80;99.90
48752;DHT22;34544;48.836;9.174;2022-09-06T09:32:29;28.90;99.90
48752;DHT22;34544;48.836;9.174;2022-09-06T09:37:39;28.70;99.90
48752;DHT22;34544;48.836;9.174;2022-09-06T09:40:06;28.90;99.90
48752;DHT22;34544;48.836;9.174;2022-09-06T09:42:37;29.20;99.90
48752;DHT22;34544;48.836;9.174;2022-09-06T09:47:43;30.30;99.90
48752;DHT22;34544;48.836;9.174;2022-09-06T09:50:41;30.70;99.30
48752;DHT22;34544;48.836;9.174;2022-09-06T09:53:10;31.30;98.60
48752;DHT22;34544;48.836;9.174;2022-09-06T09:55:37;31.80;96.70
48752;DHT22;34544;48.836;9.174;2022-09-06T09:58:03;32.20;96.50
48752;DHT22;34544;48.836;9.174;2022-09-06T10:00:36;32.40;94.90
48752;DHT22;34544;48.836;9.174;2022-09-06T10:03:12;32.40;94.70
48752;DHT22;34544;48.836;9.174;2022-09-06T10:05:39;32.70;94.30
48752;DHT22;34544;48.836;9.174;2022-09-06T10:08:10;32.70;93.60
48752;DHT22;34544;48.836;9.174;2022-09-06T10:10:46;32.90;94.20
48752;DHT22;34544;48.836;9.174;2022-09-06T10:15:40;33.60;93.40
48752;DHT22;34544;48.836;9.174;2022-09-06T10:18:30;33.80;92.20
48752;DHT22;34544;48.836;9.174;2022-09-06T10:24:04;34.30;92.50
48752;DHT22;34544;48.836;9.174;2022-09-06T10:26:52;35.10;91.90
48752;DHT22;34544;48.836;9.174;2022-09-06T10:29:44;35.20;89.20
48752;DHT22;34544;48.836;9.174;2022-09-06T10:32:29;35.50;89.50
48752;DHT22;34544;48.836;9.174;2022-09-06T10:35:19;35.40;88.20
48752;DHT22;34544;48.836;9.174;2022-09-06T10:43:19;34.30;90.80
48752;DHT22;34544;48.836;9.174;2022-09-06T10:46:02;33.80;90.40
48752;DHT22;34544;48.836;9.174;2022-09-06T10:48:40;33.40;90.80
48752;DHT22;34544;48.836;9.174;2022-09-06T10:51:17;33.10;91.00
48752;DHT22;34544;48.836;9.174;2022-09-06T10:54:09;32.70;90.70
48752;DHT22;34544;48.836;9.174;2022-09-06T10:56:55;32.40;91.70
48752;DHT22;34544;48.836;9.174;2022-09-06T10:59:25;32.10;91.30
48752;DHT22;34544;48.836;9.174;2022-09-06T11:01:55;32.00;92.40
48752;DHT22;34544;48.836;9.174;2022-09-06T11:04:34;31.90;92.70
48752;DHT22;34544;48.836;9.174;2022-09-06T11:07:04;31.90;92.90
48752;DHT22;34544;48.836;9.174;2022-09-06T11:09:42;32.00;93.10
48752;DHT22;34544;48.836;9.174;2022-09-06T11:12:14;32.10;93.20
48752;DHT22;34544;48.836;9.174;2022-09-06T11:14:42;32.20;92.70
48752;DHT22;34544;48.836;9.174;2022-09-06T11:17:18;32.20;91.50
48752;DHT22;34544;48.836;9.174;2022-09-06T11:20:21;32.00;92.20
48752;DHT22;34544;48.836;9.174;2022-09-06T11:27:54;32.10;92.50
48752;DHT22;34544;48.836;9.174;2022-09-06T11:30:21;32.40;92.30
48752;DHT22;34544;48.836;9.174;2022-09-06T11:32:50;32.80;92.10
48752;DHT22;34544;48.836;9.174;2022-09-06T11:35:31;33.20;91.60
48752;DHT22;34544;48.836;9.174;2022-09-06T11:38:26;33.80;91.20
48752;DHT22;34544;48.836;9.174;2022-09-06T11:40:59;34.50;90.80
48752;DHT22;34544;48.836;9.174;2022-09-06T11:43:46;35.00;89.70
48752;DHT22;34544;48.836;9.174;2022-09-06T11:51:36;35.90;87.20
48752;DHT22;34544;48.836;9.174;2022-09-06T11:54:04;36.10;87.50
48752;DHT22;34544;48.836;9.174;2022-09-06T11:56:39;35.90;89.10
48752;DHT22;34544;48.836;9.174;2022-09-06T12:02:04;35.50;88.00
48752;DHT22;34544;48.836;9.174;2022-09-06T12:07:32;34.90;89.50
48752;DHT22;34544;48.836;9.174;2022-09-06T12:10:41;34.50;89.00
48752;DHT22;34544;48.836;9.174;2022-09-06T12:14:01;34.10;90.10
48752;DHT22;34544;48.836;9.174;2022-09-06T12:16:20;33.60;90.70
48752;DHT22;34544;48.836;9.174;2022-09-06T12:21:44;32.60;91.40
48752;DHT22;34544;48.836;9.174;2022-09-06T12:27:18;31.40;92.10
48752;DHT22;34544;48.836;9.174;2022-09-06T12:30:06;30.90;92.90
48752;DHT22;34544;48.836;9.174;2022-09-06T12:32:44;30.50;93.80
48752;DHT22;34544;48.836;9.174;2022-09-06T12:35:19;30.10;93.60
48752;DHT22;34544;48.836;9.174;2022-09-06T12:38:06;29.90;94.50
48752;DHT22;34544;48.836;9.174;2022-09-06T12:40:36;29.60;94.90
48752;DHT22;34544;48.836;9.174;2022-09-06T12:43:04;29.30;95.50
48752;DHT22;34544;48.836;9.174;2022-09-06T12:45:30;29.10;96.90
48752;DHT22;34544;48.836;9.174;2022-09-06T12:48:04;28.80;96.30
48752;DHT22;34544;48.836;9.174;2022-09-06T12:50:30;28.60;97.00
48752;DHT22;34544;48.836;9.174;2022-09-06T12:52:58;28.50;97.20
48752;DHT22;34544;48.836;9.174;2022-09-06T12:55:31;28.30;97.40
48752;DHT22;34544;48.836;9.174;2022-09-06T12:57:59;28.20;99.10
48752;DHT22;34544;48.836;9.174;2022-09-06T13:00:34;28.10;99.20
48752;DHT22;34544;48.836;9.174;2022-09-06T13:03:13;27.90;98.00
48752;DHT22;34544;48.836;9.174;2022-09-06T13:05:42;27.90;98.40
48752;DHT22;34544;48.836;9.174;2022-09-06T13:08:14;27.80;98.50
48752;DHT22;34544;48.836;9.174;2022-09-06T13:10:44;27.70;98.90
48752;DHT22;34544;48.836;9.174;2022-09-06T13:13:18;27.60;99.60
48752;DHT22;34544;48.836;9.174;2022-09-06T13:15:45;27.50;99.10
48752;DHT22;34544;48.836;9.174;2022-09-06T13:21:03;27.50;98.50
48752;DHT22;34544;48.836;9.174;2022-09-06T13:23:45;27.40;98.50
48752;DHT22;34544;48.836;9.174;2022-09-06T13:26:12;27.50;98.70
48752;DHT22;34544;48.836;9.174;2022-09-06T13:28:38;27.60;99.90
48752;DHT22;34544;48.836;9.174;2022-09-06T13:31:18;27.70;99.20
48752;DHT22;34544;48.836;9.174;2022-09-06T13:33:57;27.70;98.40
48752;DHT22;34544;48.836;9.174;2022-09-06T13:36:26;27.70;97.90
48752;DHT22;34544;48.836;9.174;2022-09-06T13:38:52;27.70;97.80
48752;DHT22;34544;48.836;9.174;2022-09-06T13:44:00;27.60;97.80
48752;DHT22;34544;48.836;9.174;2022-09-06T13:46:33;27.50;98.20
48752;DHT22;34544;48.836;9.174;2022-09-06T13:49:01;27.40;99.10
48752;DHT22;34544;48.836;9.174;2022-09-06T13:51:27;27.30;99.90
48752;DHT22;34544;48.836;9.174;2022-09-06T13:54:05;27.10;99.90
48752;DHT22;34544;48.836;9.174;2022-09-06T13:56:32;27.00;99.90
48752;DHT22;34544;48.836;9.174;2022-09-06T13:58:57;26.80;99.90
48752;DHT22;34544;48.836;9.174;2022-09-06T14:01:23;26.60;99.90
48752;DHT22;34544;48.836;9.174;2022-09-06T14:03:49;26.50;99.90
48752;DHT22;34544;48.836;9.174;2022-09-06T14:06:15;26.40;99.90
48752;DHT22;34544;48.836;9.174;2022-09-06T14:08:41;26.30;99.90
48752;DHT22;34544;48.836;9.174;2022-09-06T14:11:07;26.20;99.90
48752;DHT22;34544;48.836;9.174;2022-09-06T14:13:33;26.10;99.90
48752;DHT22;34544;48.836;9.174;2022-09-06T14:15:59;26.10;99.90
48752;DHT22;34544;48.836;9.174;2022-09-06T14:18:24;26.10;99.90
48752;DHT22;34544;48.836;9.174;2022-09-06T14:20:54;26.00;99.90
48752;DHT22;34544;48.836;9.174;2022-09-06T14:23:21;26.00;99.90
48752;DHT22;34544;48.836;9.174;2022-09-06T14:25:48;25.90;99.90
48752;DHT22;34544;48.836;9.174;2022-09-06T14:28:14;25.80;99.90
48752;DHT22;34544;48.836;9.174;2022-09-06T14:30:40;25.70;99.90
48752;DHT22;34544;48.836;9.174;2022-09-06T14:33:05;25.60;99.90
48752;DHT22;34544;48.836;9.174;2022-09-06T14:35:31;25.60;99.90
48752;DHT22;34544;48.836;9.174;2022-09-06T14:37:57;25.40;99.90
48752;DHT22;34544;48.836;9.174;2022-09-06T14:40:24;25.40;99.90
48752;DHT22;34544;48.836;9.174;2022-09-06T14:42:50;25.30;99.90
48752;DHT22;34544;48.836;9.174;2022-09-06T14:45:17;25.20;99.90
48752;DHT22;34544;48.836;9.174;2022-09-06T14:47:44;25.10;99.90
48752;DHT22;34544;48.836;9.174;2022-09-06T14:50:09;25.10;99.90
48752;DHT22;34544;48.836;9.174;2022-09-06T14:52:35;25.00;99.90
48752;DHT22;34544;48.836;9.174;2022-09-06T14:55:01;25.00;99.90
48752;DHT22;34544;48.836;9.174;2022-09-06T14:57:27;24.90;99.90
48752;DHT22;34544;48.836;9.174;2022-09-06T14:59:54;24.90;99.90
48752;DHT22;34544;48.836;9.174;2022-09-06T15:02:20;24.80;99.90
48752;DHT22;34544;48.836;9.174;2022-09-06T15:04:45;24.80;99.90
48752;DHT22;34544;48.836;9.174;2022-09-06T15:07:11;24.70;99.90
48752;DHT22;34544;48.836;9.174;2022-09-06T15:09:38;24.70;99.90
48752;DHT22;34544;48.836;9.174;2022-09-06T15:12:04;24.50;99.90
48752;DHT22;34544;48.836;9.174;2022-09-06T15:14:30;24.40;99.90
48752;DHT22;34544;48.836;9.174;2022-09-06T15:16:56;24.30;99.90
48752;DHT22;34544;48.836;9.174;2022-09-06T15:19:26;24.30;99.90
48752;DHT22;34544;48.836;9.174;2022-09-06T15:21:52;24.30;99.90
48752;DHT22;34544;48.836;9.174;2022-09-06T15:24:18;24.20;99.90
48752;DHT22;34544;48.836;9.174;2022-09-06T15:26:44;24.10;99.90
48752;DHT22;34544;48.836;9.174;2022-09-06T15:29:11;24.10;99.90
48752;DHT22;34544;48.836;9.174;2022-09-06T15:31:38;24.10;99.90
48752;DHT22;34544;48.836;9.174;2022-09-06T15:34:05;24.20;99.90
48752;DHT22;34544;48.836;9.174;2022-09-06T15:36:32;24.30;99.90
48752;DHT22;34544;48.836;9.174;2022-09-06T15:38:59;24.60;99.90
48752;DHT22;34544;48.836;9.174;2022-09-06T15:41:27;25.00;99.90
48752;DHT22;34544;48.836;9.174;2022-09-06T15:43:59;25.70;99.90
48752;DHT22;34544;48.836;9.174;2022-09-06T15:49:01;26.70;99.90
48752;DHT22;34544;48.836;9.174;2022-09-06T15:51:31;26.90;99.90
48752;DHT22;34544;48.836;9.174;2022-09-06T15:53:57;27.20;99.90
48752;DHT22;34544;48.836;9.174;2022-09-06T15:56:23;27.30;99.90
48752;DHT22;34544;48.836;9.174;2022-09-06T15:58:49;27.30;99.90
48752;DHT22;34544;48.836;9.174;2022-09-06T16:01:17;27.10;99.90
48752;DHT22;34544;48.836;9.174;2022-09-06T16:03:46;26.90;99.90
48752;DHT22;34544;48.836;9.174;2022-09-06T16:06:24;26.70;99.90
48752;DHT22;34544;48.836;9.174;2022-09-06T16:08:55;26.50;99.90
48752;DHT22;34544;48.836;9.174;2022-09-06T16:11:23;26.30;99.90
48752;DHT22;34544;48.836;9.174;2022-09-06T16:13:49;26.10;99.90
48752;DHT22;34544;48.836;9.174;2022-09-06T16:16:15;26.00;99.90
48752;DHT22;34544;48.836;9.174;2022-09-06T16:18:43;25.80;99.90
48752;DHT22;34544;48.836;9.174;2022-09-06T16:21:14;25.80;99.90
48752;DHT22;34544;48.836;9.174;2022-09-06T16:23:47;25.70;99.90
48752;DHT22;34544;48.836;9.174;2022-09-06T16:26:14;25.70;99.90
48752;DHT22;34544;48.836;9.174;2022-09-06T16:28:40;25.80;99.90
48752;DHT22;34544;48.836;9.174;2022-09-06T16:31:08;26.10;99.90
48752;DHT22;34544;48.836;9.174;2022-09-06T16:33:35;26.60;99.90
48752;DHT22;34544;48.836;9.174;2022-09-06T16:36:06;27.20;99.90
48752;DHT22;34544;48.836;9.174;2022-09-06T16:38:36;27.70;99.90
48752;DHT22;34544;48.836;9.174;2022-09-06T16:44:05;28.60;99.90
48752;DHT22;34544;48.836;9.174;2022-09-06T16:46:31;29.00;99.90
48752;DHT22;34544;48.836;9.174;2022-09-06T16:48:58;29.20;99.90
48752;DHT22;34544;48.836;9.174;2022-09-06T16:51:29;29.40;99.90
48752;DHT22;34544;48.836;9.174;2022-09-06T16:53:56;29.50;99.90
48752;DHT22;34544;48.836;9.174;2022-09-06T16:56:24;29.50;99.90
48752;DHT22;34544;48.836;9.174;2022-09-06T16:58:52;29.50;99.80
48752;DHT22;34544;48.836;9.174;2022-09-06T17:01:19;29.40;99.10
48752;DHT22;34544;48.836;9.174;2022-09-06T17:03:45;29.30;99.90
48752;DHT22;34544;48.836;9.174;2022-09-06T17:06:12;29.20;99.90
48752;DHT22;34544;48.836;9.174;2022-09-06T17:08:38;29.10;99.80
48752;DHT22;34544;48.836;9.174;2022-09-06T17:11:07;28.80;99.90
48752;DHT22;34544;48.836;9.174;2022-09-06T17:13:34;28.50;99.90
48752;DHT22;34544;48.836;9.174;2022-09-06T17:15:59;28.10;99.90
48752;DHT22;34544;48.836;9.174;2022-09-06T17:18:44;27.70;99.90
48752;DHT22;34544;48.836;9.174;2022-09-06T17:21:10;27.30;99.90